createdAt,value
2023-05-21T00:00:18.084Z,21.30
2023-05-21T00:02:47.087Z,20.10
2023-05-21T00:05:19.311Z,20.02
2023-05-21T00:07:48.523Z,21.30
2023-05-21T00:10:17.977Z,34.05
2023-05-21T00:12:46.954Z,22.08
2023-05-21T00:15:15.777Z,30.20
2023-05-21T00:17:45.180Z,21.80
2023-05-21T00:20:14.149Z,21.85
2023-05-21T00:22:43.246Z,22.20
2023-05-21T00:25:13.033Z,18.75
2023-05-21T00:27:42.003Z,23.95
2023-05-21T00:30:11.218Z,17.55
2023-05-21T00:32:40.196Z,17.90
2023-05-21T00:35:10.026Z,18.25
2023-05-21T00:37:39.236Z,20.23
2023-05-21T00:40:09.843Z,17.55
2023-05-21T00:42:40.765Z,15.63
2023-05-21T00:45:10.268Z,19.67
2023-05-21T00:47:40.075Z,16.50
2023-05-21T00:50:09.841Z,18.50
2023-05-21T00:52:42.648Z,17.60
2023-05-21T00:55:11.807Z,16.10
2023-05-21T00:57:41.527Z,18.02
2023-05-21T01:00:11.460Z,17.80
2023-05-21T01:02:40.780Z,18.63
2023-05-21T01:05:10.976Z,19.63
2023-05-21T01:07:42.130Z,13.80
2023-05-21T01:10:13.739Z,14.20
2023-05-21T01:12:45.730Z,18.10
2023-05-21T01:15:15.217Z,16.77
2023-05-21T01:17:46.501Z,22.35
2023-05-21T01:20:21.003Z,16.83
2023-05-21T01:25:22.063Z,19.08
2023-05-21T01:27:52.471Z,17.75
2023-05-21T01:30:23.358Z,22.58
2023-05-21T01:33:30.617Z,29.02
2023-05-21T01:36:27.160Z,22.15
2023-05-21T01:39:03.080Z,18.02
2023-05-21T01:41:37.950Z,17.85
2023-05-21T01:44:08.244Z,18.10
2023-05-21T01:46:38.785Z,19.15
2023-05-21T01:49:09.027Z,17.75
2023-05-21T01:51:38.803Z,20.45
2023-05-21T01:54:07.642Z,18.60
2023-05-21T01:56:37.684Z,24.75
2023-05-21T01:59:06.733Z,20.63
2023-05-21T02:01:35.554Z,30.08
2023-05-21T02:04:04.818Z,26.90
2023-05-21T02:06:34.105Z,21.25
2023-05-21T02:09:04.345Z,24.25
2023-05-21T02:11:33.149Z,27.15
2023-05-21T02:14:02.312Z,38.53
2023-05-21T02:16:31.868Z,18.08
2023-05-21T02:19:01.357Z,18.85
2023-05-21T02:21:30.347Z,20.23
2023-05-21T02:23:59.318Z,17.10
2023-05-21T02:26:28.610Z,21.60
2023-05-21T02:28:57.551Z,16.50
2023-05-21T02:31:26.742Z,19.30
2023-05-21T02:33:55.600Z,17.25
2023-05-21T02:36:26.129Z,21.77
2023-05-21T02:38:55.336Z,18.05
2023-05-21T02:41:24.289Z,16.45
2023-05-21T02:43:53.191Z,16.25
2023-05-21T02:46:22.674Z,18.92
2023-05-21T02:48:51.596Z,17.42
2023-05-21T02:51:20.323Z,15.38
2023-05-21T02:53:49.880Z,16.17
2023-05-21T02:56:19.447Z,17.48
2023-05-21T02:58:49.072Z,14.15
2023-05-21T03:01:17.890Z,14.07
2023-05-21T03:03:47.305Z,18.15
2023-05-21T03:06:17.293Z,14.48
2023-05-21T03:08:46.252Z,12.35
2023-05-21T03:11:15.245Z,15.20
2023-05-21T03:13:44.146Z,12.98
2023-05-21T03:16:13.112Z,16.02
2023-05-21T03:18:42.076Z,13.35
2023-05-21T03:21:14.064Z,19.80
2023-05-21T03:23:45.368Z,11.13
2023-05-21T03:26:14.864Z,11.65
2023-05-21T03:28:44.500Z,10.43
2023-05-21T03:31:13.504Z,11.02
2023-05-21T03:34:14.485Z,13.57
2023-05-21T03:36:43.461Z,10.65
2023-05-21T03:39:12.668Z,20.70
2023-05-21T03:41:41.826Z,8.38
2023-05-21T03:44:17.987Z,7.53
2023-05-21T03:46:55.367Z,8.98
2023-05-21T03:49:33.143Z,9.65
2023-05-21T03:52:02.410Z,8.95
2023-05-21T03:54:31.240Z,12.70
2023-05-21T03:57:04.652Z,6.78
2023-05-21T03:59:34.866Z,7.88
2023-05-21T04:02:06.162Z,7.32
2023-05-21T04:04:35.221Z,9.85
2023-05-21T04:07:05.325Z,8.73
2023-05-21T04:09:36.512Z,3.85
2023-05-21T04:12:05.808Z,7.70
2023-05-21T04:14:35.210Z,8.18
2023-05-21T04:17:06.151Z,8.00
2023-05-21T04:19:35.397Z,9.05
2023-05-21T04:22:05.754Z,6.38
2023-05-21T04:24:37.687Z,13.23
2023-05-21T04:27:17.691Z,5.88
2023-05-21T04:29:47.614Z,9.35
2023-05-21T04:32:18.858Z,9.25
2023-05-21T04:34:47.748Z,13.60
2023-05-21T04:37:18.764Z,9.70
2023-05-21T04:39:47.698Z,6.80
2023-05-21T04:42:16.608Z,4.43
2023-05-21T04:44:45.476Z,7.20
2023-05-21T04:47:15.405Z,4.50
2023-05-21T04:49:45.111Z,4.85
2023-05-21T04:52:14.795Z,4.78
2023-05-21T04:54:44.179Z,8.18
2023-05-21T04:57:13.331Z,8.77
2023-05-21T04:59:44.446Z,9.18
2023-05-21T05:02:13.224Z,5.78
2023-05-21T05:04:42.158Z,6.30
2023-05-21T05:07:11.768Z,7.30
2023-05-21T05:09:43.785Z,7.75
2023-05-21T05:12:12.934Z,31.85
2023-05-21T05:14:41.765Z,8.27
2023-05-21T05:17:11.396Z,9.38
2023-05-21T05:19:40.728Z,11.38
2023-05-21T05:22:10.401Z,6.45
2023-05-21T05:24:40.827Z,4.32
2023-05-21T05:27:09.530Z,4.88
2023-05-21T05:29:38.488Z,5.45
2023-05-21T05:32:08.133Z,9.02
2023-05-21T05:34:36.949Z,7.35
2023-05-21T05:37:07.448Z,8.48
2023-05-21T05:39:36.177Z,8.88
2023-05-21T05:42:05.554Z,11.80
2023-05-21T05:44:34.481Z,19.55
2023-05-21T05:47:03.730Z,10.38
2023-05-21T05:49:32.516Z,14.38
2023-05-21T05:52:02.328Z,9.80
2023-05-21T05:54:31.410Z,6.65
2023-05-21T05:57:00.490Z,5.55
2023-05-21T05:59:29.598Z,7.50
2023-05-21T06:02:02.293Z,6.00
2023-05-21T06:04:31.321Z,7.78
2023-05-21T06:07:03.366Z,5.20
2023-05-21T06:09:34.485Z,4.57
2023-05-21T06:12:03.273Z,8.18
2023-05-21T06:14:32.589Z,4.97
2023-05-21T06:17:01.562Z,6.80
2023-05-21T06:19:30.372Z,5.43
2023-05-21T06:21:59.366Z,5.65
2023-05-21T06:24:28.646Z,6.53
2023-05-21T06:26:57.964Z,9.43
2023-05-21T06:29:27.096Z,11.70
2023-05-21T06:31:56.392Z,5.72
2023-05-21T06:34:25.438Z,6.80
2023-05-21T06:36:58.978Z,18.20
2023-05-21T06:39:28.565Z,6.60
2023-05-21T06:41:57.956Z,10.60
2023-05-21T06:44:45.575Z,11.00
2023-05-21T06:47:38.380Z,6.82
2023-05-21T06:50:07.581Z,8.75
2023-05-21T06:52:36.703Z,5.63
2023-05-21T06:55:06.188Z,5.43
2023-05-21T06:57:55.048Z,7.65
2023-05-21T07:00:24.554Z,8.68
2023-05-21T07:02:53.492Z,7.55
2023-05-21T07:05:22.533Z,6.90
2023-05-21T07:07:51.714Z,6.55
2023-05-21T07:10:21.373Z,8.65
2023-05-21T07:12:50.247Z,4.55
2023-05-21T07:15:21.923Z,4.50
2023-05-21T07:17:50.804Z,4.30
2023-05-21T07:20:20.733Z,6.72
2023-05-21T07:22:52.286Z,4.95
2023-05-21T07:25:21.504Z,6.20
2023-05-21T07:27:50.464Z,10.43
2023-05-21T07:30:19.243Z,6.30
2023-05-21T07:32:49.191Z,4.70
2023-05-21T07:35:18.104Z,6.25
2023-05-21T07:37:47.857Z,9.48
2023-05-21T07:40:17.024Z,14.32
2023-05-21T07:42:46.703Z,21.58
2023-05-21T07:45:20.006Z,13.77
2023-05-21T07:47:48.907Z,18.63
2023-05-21T07:50:18.247Z,24.75
2023-05-21T07:52:47.666Z,12.52
2023-05-21T07:55:17.474Z,14.10
2023-05-21T07:57:47.152Z,10.10
2023-05-21T08:00:18.398Z,10.45
2023-05-21T08:02:53.905Z,12.93
2023-05-21T08:05:24.152Z,9.50
2023-05-21T08:07:53.347Z,11.73
2023-05-21T08:10:23.471Z,6.10
2023-05-21T08:12:53.766Z,6.15
2023-05-21T08:15:23.345Z,5.30
2023-05-21T08:17:52.418Z,10.23
2023-05-21T08:20:21.924Z,5.30
2023-05-21T08:22:51.967Z,10.30
2023-05-21T08:25:21.646Z,9.45
2023-05-21T08:27:52.333Z,15.05
2023-05-21T08:30:21.942Z,7.55
2023-05-21T08:32:50.823Z,4.22
2023-05-21T08:35:22.030Z,5.15
2023-05-21T08:37:59.597Z,5.35
2023-05-21T08:40:44.306Z,4.82
2023-05-21T08:43:17.303Z,8.15
2023-05-21T08:45:55.923Z,12.32
2023-05-21T08:48:29.126Z,13.07
2023-05-21T08:51:00.467Z,9.60
2023-05-21T08:53:36.936Z,13.10
2023-05-21T08:56:09.993Z,11.48
2023-05-21T08:58:52.268Z,7.72
2023-05-21T09:01:26.553Z,7.70
2023-05-21T09:04:20.139Z,11.10
2023-05-21T09:06:55.478Z,7.70
2023-05-21T09:09:48.345Z,9.77
2023-05-21T09:12:17.904Z,7.03
2023-05-21T09:14:49.268Z,5.00
2023-05-21T09:17:21.309Z,4.30
2023-05-21T09:20:14.189Z,7.72
2023-05-21T09:22:52.739Z,15.25
2023-05-21T09:25:28.916Z,9.45
2023-05-21T09:28:02.142Z,7.15
2023-05-21T09:30:33.319Z,8.30
2023-05-21T09:33:07.824Z,6.93
2023-05-21T09:35:38.252Z,9.13
2023-05-21T09:38:10.519Z,6.05
2023-05-21T09:40:46.522Z,7.22
2023-05-21T09:43:17.227Z,6.57
2023-05-21T09:45:54.158Z,6.18
2023-05-21T09:48:35.537Z,7.10
2023-05-21T09:51:10.839Z,6.72
2023-05-21T09:56:32.973Z,4.57
2023-05-21T09:59:07.726Z,4.25
2023-05-21T10:01:38.330Z,11.02
2023-05-21T10:04:11.587Z,19.00
2023-05-21T10:06:45.424Z,7.15
2023-05-21T10:09:20.264Z,15.02
2023-05-21T10:11:53.894Z,14.95
2023-05-21T10:14:26.364Z,9.38
2023-05-21T10:16:58.986Z,5.28
2023-05-21T10:19:32.712Z,11.45
2023-05-21T10:22:02.311Z,7.38
2023-05-21T10:24:32.816Z,4.45
2023-05-21T10:27:04.875Z,5.85
2023-05-21T10:29:36.458Z,7.53
2023-05-21T10:32:06.955Z,8.15
2023-05-21T10:34:37.712Z,7.60
2023-05-21T10:37:10.563Z,5.85
2023-05-21T10:39:40.619Z,12.52
2023-05-21T10:42:25.144Z,6.40
2023-05-21T10:45:18.766Z,62.53
2023-05-21T10:48:24.922Z,15.73
2023-05-21T10:51:17.606Z,9.20
2023-05-21T10:54:17.563Z,21.75
2023-05-21T10:56:58.467Z,18.90
2023-05-21T11:00:04.955Z,20.02
2023-05-21T11:02:37.900Z,11.07
2023-05-21T11:05:07.878Z,41.95
2023-05-21T11:07:58.522Z,16.90
2023-05-21T11:10:39.068Z,17.90
2023-05-21T11:13:15.477Z,11.93
2023-05-21T11:15:59.920Z,7.78
2023-05-21T11:18:39.158Z,7.22
2023-05-21T11:21:11.253Z,5.45
2023-05-21T11:23:52.355Z,19.10
2023-05-21T11:26:25.692Z,31.60
2023-05-21T11:29:07.154Z,6.43
2023-05-21T11:31:40.887Z,9.75
2023-05-21T11:34:10.373Z,97.82
2023-05-21T11:36:45.071Z,8.40
2023-05-21T11:39:25.760Z,5.10
2023-05-21T11:42:04.447Z,8.40
2023-05-21T11:44:43.409Z,20.33
2023-05-21T11:47:15.534Z,6.50
2023-05-21T11:49:45.067Z,8.75
2023-05-21T11:52:15.695Z,21.92
2023-05-21T11:54:51.494Z,7.75
2023-05-21T11:57:21.176Z,20.42
2023-05-21T11:59:54.739Z,18.05
2023-05-21T12:02:23.932Z,20.20
2023-05-21T12:04:52.887Z,19.10
2023-05-21T12:07:22.791Z,11.15
2023-05-21T12:09:53.332Z,7.40
2023-05-21T12:12:25.128Z,5.63
2023-05-21T12:14:55.705Z,7.05
2023-05-21T12:17:25.946Z,7.90
2023-05-21T12:19:57.910Z,7.25
2023-05-21T12:22:29.020Z,11.70
2023-05-21T12:24:59.246Z,19.13
2023-05-21T12:27:29.015Z,7.32
2023-05-21T12:29:58.283Z,15.52
2023-05-21T12:32:30.006Z,24.98
2023-05-21T12:34:59.165Z,21.92
2023-05-21T12:37:36.448Z,22.20
2023-05-21T12:40:06.274Z,9.23
2023-05-21T12:42:38.395Z,7.07
2023-05-21T12:45:09.278Z,7.68
2023-05-21T12:47:38.556Z,8.88
2023-05-21T12:50:14.766Z,14.60
2023-05-21T12:52:45.184Z,9.75
2023-05-21T12:55:20.827Z,10.98
2023-05-21T12:57:50.066Z,26.42
2023-05-21T13:00:25.025Z,13.40
2023-05-21T13:02:54.223Z,9.95
2023-05-21T13:05:23.252Z,12.65
2023-05-21T13:07:52.692Z,17.65
2023-05-21T13:10:21.485Z,10.55
2023-05-21T13:12:50.559Z,11.73
2023-05-21T13:15:20.407Z,7.07
2023-05-21T13:17:50.554Z,6.45
2023-05-21T13:20:24.583Z,12.18
2023-05-21T13:22:53.773Z,14.27
2023-05-21T13:25:25.807Z,15.18
2023-05-21T13:27:55.540Z,15.60
2023-05-21T13:30:24.559Z,22.33
2023-05-21T13:32:53.604Z,12.98
2023-05-21T13:35:23.007Z,10.77
2023-05-21T13:37:52.324Z,13.82
2023-05-21T13:40:21.628Z,11.27
2023-05-21T13:42:51.073Z,9.77
2023-05-21T13:45:21.850Z,13.57
2023-05-21T13:47:51.223Z,14.23
2023-05-21T13:50:20.213Z,18.25
2023-05-21T13:52:49.328Z,31.77
2023-05-21T13:55:19.693Z,62.20
2023-05-21T13:57:48.581Z,34.47
2023-05-21T14:00:17.563Z,155.98
2023-05-21T14:02:46.387Z,98.10
2023-05-21T14:05:15.425Z,148.07
2023-05-21T14:07:44.521Z,209.43
2023-05-21T14:10:13.409Z,105.68
2023-05-21T14:12:46.807Z,120.72
2023-05-21T14:15:18.565Z,218.40
2023-05-21T14:17:47.501Z,85.53
2023-05-21T14:20:16.284Z,93.38
2023-05-21T14:22:45.498Z,127.90
2023-05-21T14:25:14.438Z,181.30
2023-05-21T14:27:43.628Z,145.57
2023-05-21T14:30:12.868Z,183.52
2023-05-21T14:32:42.023Z,145.25
2023-05-21T14:35:11.026Z,227.50
2023-05-21T14:37:40.191Z,130.82
2023-05-21T14:40:09.701Z,122.50
2023-05-21T14:42:38.747Z,195.43
2023-05-21T14:45:18.693Z,277.50
2023-05-21T14:47:48.952Z,168.32
2023-05-21T14:50:19.053Z,190.95
2023-05-21T14:52:48.364Z,180.60
2023-05-21T14:55:23.078Z,208.05
2023-05-21T14:57:52.245Z,181.60
2023-05-21T15:00:21.726Z,150.27
2023-05-21T15:02:55.788Z,144.80
2023-05-21T15:05:32.796Z,217.25
2023-05-21T15:08:02.339Z,321.80
2023-05-21T15:10:31.663Z,152.30
2023-05-21T15:13:00.520Z,111.45
2023-05-21T15:15:29.359Z,141.32
2023-05-21T15:17:58.790Z,209.43
2023-05-21T15:20:27.887Z,109.22
2023-05-21T15:23:15.438Z,179.15
2023-05-21T15:25:46.488Z,87.75
2023-05-21T15:28:15.814Z,119.03
2023-05-21T15:30:44.864Z,126.97
2023-05-21T15:33:13.863Z,191.38
2023-05-21T15:35:43.138Z,79.70
2023-05-21T15:38:12.408Z,75.68
2023-05-21T15:40:45.086Z,107.13
2023-05-21T15:43:14.484Z,69.45
2023-05-21T15:45:43.388Z,55.58
2023-05-21T15:48:13.444Z,45.20
2023-05-21T15:50:42.561Z,34.95
2023-05-21T15:53:12.593Z,44.15
2023-05-21T15:55:41.647Z,42.53
2023-05-21T15:58:10.983Z,39.65
2023-05-21T16:00:42.493Z,33.28
2023-05-21T16:03:13.396Z,26.10
2023-05-21T16:05:42.590Z,64.03
2023-05-21T16:08:13.072Z,40.17
2023-05-21T16:10:42.029Z,33.20
2023-05-21T16:13:11.338Z,39.80
2023-05-21T16:15:41.167Z,39.33
2023-05-21T16:18:10.505Z,22.00
2023-05-21T16:20:40.053Z,30.88
2023-05-21T16:23:12.951Z,50.70
2023-05-21T16:25:42.377Z,40.63
2023-05-21T16:28:12.829Z,26.50
2023-05-21T16:30:41.991Z,62.55
2023-05-21T16:33:12.196Z,33.00
2023-05-21T16:35:41.328Z,37.17
2023-05-21T16:38:10.684Z,24.27
2023-05-21T16:40:41.302Z,24.90
2023-05-21T16:43:10.416Z,26.45
2023-05-21T16:45:45.215Z,75.88
2023-05-21T16:48:14.714Z,23.70
2023-05-21T16:50:44.314Z,36.78
2023-05-21T16:53:13.620Z,19.15
2023-05-21T16:55:43.934Z,30.17
2023-05-21T16:58:14.491Z,27.88
2023-05-21T17:00:43.151Z,20.35
2023-05-21T17:03:13.506Z,88.20
2023-05-21T17:05:42.805Z,56.63
2023-05-21T17:08:11.704Z,22.15
2023-05-21T17:10:40.378Z,28.30
2023-05-21T17:13:21.673Z,194.23
2023-05-21T17:15:54.506Z,40.92
2023-05-21T17:18:23.633Z,93.47
2023-05-21T17:20:52.549Z,79.22
2023-05-21T17:23:21.374Z,45.25
2023-05-21T17:25:53.350Z,122.28
2023-05-21T17:28:22.550Z,48.10
2023-05-21T17:30:52.300Z,25.48
2023-05-21T17:33:22.214Z,22.65
2023-05-21T17:35:52.154Z,20.65
2023-05-21T17:38:21.418Z,23.50
2023-05-21T17:40:51.377Z,22.08
2023-05-21T17:43:20.325Z,15.25
2023-05-21T17:45:49.122Z,11.82
2023-05-21T17:48:18.529Z,12.10
2023-05-21T17:50:47.928Z,11.75
2023-05-21T17:53:17.406Z,11.43
2023-05-21T17:55:46.785Z,10.30
2023-05-21T17:58:16.549Z,11.10
2023-05-21T18:00:45.939Z,13.45
2023-05-21T18:03:15.298Z,15.73
2023-05-21T18:05:44.516Z,27.35
2023-05-21T18:08:13.486Z,28.98
2023-05-21T18:10:43.502Z,18.05
2023-05-21T18:13:12.689Z,20.45
2023-05-21T18:15:41.778Z,19.67
2023-05-21T18:18:10.769Z,17.52
2023-05-21T18:20:39.670Z,19.75
2023-05-21T18:23:08.566Z,20.45
2023-05-21T18:25:37.303Z,22.38
2023-05-21T18:28:06.386Z,24.75
2023-05-21T18:30:37.318Z,18.52
2023-05-21T18:33:06.451Z,23.52
2023-05-21T18:35:35.764Z,25.15
2023-05-21T18:38:04.898Z,26.10
2023-05-21T18:40:34.061Z,16.38
2023-05-21T18:43:07.182Z,12.57
2023-05-21T18:45:36.693Z,17.38
2023-05-21T18:48:05.977Z,10.13
2023-05-21T18:50:35.710Z,17.52
2023-05-21T18:53:05.489Z,9.73
2023-05-21T18:55:35.425Z,13.10
2023-05-21T18:58:04.357Z,12.35
2023-05-21T19:00:34.858Z,10.85
2023-05-21T19:03:03.996Z,9.38
2023-05-21T19:05:33.223Z,7.43
2023-05-21T19:08:02.006Z,9.25
2023-05-21T19:10:31.505Z,10.80
2023-05-21T19:13:00.409Z,7.57
2023-05-21T19:15:29.322Z,12.80
2023-05-21T19:17:58.093Z,9.32
2023-05-21T19:20:29.935Z,12.55
2023-05-21T19:22:58.724Z,12.43
2023-05-21T19:25:28.243Z,10.05
2023-05-21T19:27:57.223Z,15.23
2023-05-21T19:30:26.474Z,13.98
2023-05-21T19:32:55.599Z,13.68
2023-05-21T19:35:24.411Z,14.27
2023-05-21T19:37:55.344Z,19.95
2023-05-21T19:40:24.404Z,17.55
2023-05-21T19:42:53.346Z,21.58
2023-05-21T19:45:22.326Z,17.92
2023-05-21T19:47:52.116Z,22.77
2023-05-21T19:50:20.848Z,21.40
2023-05-21T19:52:49.771Z,27.13
2023-05-21T19:55:20.978Z,16.90
2023-05-21T19:57:49.901Z,43.22
2023-05-21T20:00:19.018Z,70.35
2023-05-21T20:02:48.101Z,15.73
2023-05-21T20:05:17.057Z,42.28
2023-05-21T20:07:45.973Z,23.90
2023-05-21T20:10:15.208Z,34.95
2023-05-21T20:12:44.244Z,24.85
2023-05-21T20:15:15.168Z,20.95
2023-05-21T20:17:44.948Z,18.38
2023-05-21T20:20:13.870Z,12.25
2023-05-21T20:22:42.652Z,11.15
2023-05-21T20:25:11.578Z,15.60
2023-05-21T20:27:40.400Z,11.23
2023-05-21T20:30:09.972Z,13.00
2023-05-21T20:32:39.016Z,9.20
2023-05-21T20:35:12.190Z,82.88
2023-05-21T20:37:41.098Z,21.90
2023-05-21T20:40:13.397Z,58.53
2023-05-21T20:42:45.660Z,65.03
2023-05-21T20:45:16.656Z,23.25
2023-05-21T20:47:45.454Z,31.00
2023-05-21T20:50:14.359Z,13.95
2023-05-21T20:52:46.237Z,13.02
2023-05-21T20:55:15.883Z,14.90
2023-05-21T20:57:44.859Z,13.90
2023-05-21T21:00:14.337Z,18.38
2023-05-21T21:02:43.338Z,11.18
2023-05-21T21:05:12.238Z,11.63
2023-05-21T21:07:41.241Z,12.93
2023-05-21T21:10:10.602Z,18.75
2023-05-21T21:12:39.439Z,15.88
2023-05-21T21:15:09.177Z,9.75
2023-05-21T21:17:38.140Z,12.75
2023-05-21T21:20:08.659Z,14.02
2023-05-21T21:22:37.475Z,20.55
2023-05-21T21:25:07.057Z,23.33
2023-05-21T21:27:35.769Z,18.00
2023-05-21T21:30:05.578Z,16.67
2023-05-21T21:32:34.376Z,14.30
2023-05-21T21:35:03.204Z,20.42
2023-05-21T21:37:32.123Z,16.13
2023-05-21T21:40:01.061Z,12.43
2023-05-21T21:42:30.264Z,12.88
2023-05-21T21:44:59.043Z,10.68
2023-05-21T21:47:27.934Z,9.38
2023-05-21T21:49:56.844Z,10.70
2023-05-21T21:52:28.263Z,17.33
2023-05-21T21:54:57.223Z,18.83
2023-05-21T21:57:28.225Z,13.20
2023-05-21T21:59:57.269Z,14.05
2023-05-21T22:02:26.683Z,16.20
2023-05-21T22:04:55.514Z,22.63
2023-05-21T22:07:24.546Z,19.23
2023-05-21T22:09:53.366Z,25.65
2023-05-21T22:12:23.448Z,13.70
2023-05-21T22:14:52.448Z,12.77
2023-05-21T22:17:22.220Z,13.98
2023-05-21T22:19:51.594Z,12.95
2023-05-21T22:22:20.362Z,14.73
2023-05-21T22:24:49.217Z,11.65
2023-05-21T22:27:18.166Z,13.75
2023-05-21T22:29:47.088Z,12.43
2023-05-21T22:32:15.853Z,16.23
2023-05-21T22:34:44.776Z,11.73
2023-05-21T22:37:13.550Z,13.60
2023-05-21T22:39:42.427Z,11.98
2023-05-21T22:42:11.548Z,11.80
2023-05-21T22:44:40.250Z,13.07
2023-05-21T22:47:10.205Z,14.63
2023-05-21T22:49:39.049Z,19.48
2023-05-21T22:52:09.867Z,14.70
2023-05-21T22:54:38.748Z,19.23
2023-05-21T22:57:07.668Z,14.50
2023-05-21T22:59:36.794Z,15.43
2023-05-21T23:02:06.148Z,16.95
2023-05-21T23:04:43.183Z,14.40
2023-05-21T23:07:13.257Z,17.90
2023-05-21T23:09:44.585Z,20.92
2023-05-21T23:12:13.549Z,29.00
2023-05-21T23:14:42.574Z,17.45
2023-05-21T23:17:12.016Z,15.05
2023-05-21T23:19:41.345Z,21.88
2023-05-21T23:22:10.246Z,16.50
2023-05-21T23:24:39.788Z,19.30
2023-05-21T23:27:08.738Z,15.35
2023-05-21T23:29:37.411Z,16.83
2023-05-21T23:32:06.853Z,19.25
2023-05-21T23:34:35.927Z,14.80
2023-05-21T23:37:07.064Z,15.20
2023-05-21T23:39:36.126Z,19.60
2023-05-21T23:42:05.389Z,30.90
2023-05-21T23:44:34.264Z,47.15
2023-05-21T23:47:03.281Z,40.72
2023-05-21T23:49:32.153Z,46.05
2023-05-21T23:52:00.836Z,37.95
2023-05-21T23:54:29.801Z,22.80
2023-05-21T23:56:58.651Z,18.65
2023-05-21T23:59:27.686Z,14.85
